Fredericksburg, TX

3:23 AM CST on February 06, 2016 (GMT -0600)
KNOPP SCHOOL RD | | Change Station
CLOSE
Current Station
Personal Weather Station
Location: Fredericksburg, TX
Elevation: 1752 ft
Nearby Weather Stations

Elev 1752 ft 30.33 °N, 98.80 °W | Updated 8 seconds ago

Clear
Clear
38.3 °F
Feels Like 38 °F
N
2.2
Wind Variable Wind from NW

Today
High -- | Low -- °F
--% Chance of Precip.
Yesterday
High -- | Low -- °F
Precip. -- in
Pressure 30.33 in
Visibility 10.0 miles
Clouds Clear
Windchill 38 °F
Dew Point 38 °F
Humidity 99%
Rainfall 0.00 in
Snow Depth Not available.
7:23 AM 6:16 PM
Waning Crescent, 6% visible
METAR KT82 060915Z AUTO 21004KT 10SM CLR 03/M03 A3033 RMK AO2 T00281029
Pressure 30.33 in
Visibility 10.0 miles
Clouds Clear
Windchill 38 °F
Dew Point 38 °F
Humidity 99%
Rainfall 0.00 in
Snow Depth Not available.
7:23 AM 6:16 PM
Waning Crescent, 6% visible
METAR KT82 060915Z AUTO 21004KT 10SM CLR 03/M03 A3033 RMK AO2 T00281029

10-Day Weather Forecast

Almanac

Astronomy

Feb. 06, 2016 Rise Set
Actual Time
Civil Twilight
Nautical Twilight
Astronomical Twilight
Moon
Length of Visible Light
Length of Day
Tomorrow will be .
, % of the Moon is Illuminated

Today's Extremes

State Highs State Lows

Community

WunderPhotos

Upload Photos

1,890,933 photos uploaded!

WunderBlog® & News

Nearby

Air Quality

  Air Quality AQ Index Pollutant
Not available.

Snow Depth

Station Depth Elevation

Earthquake Activity

City Distance Mag. Time & Date
Minimum magnitude displayed is 2.5.

Coastal Water Temperatures

Place Temperature

Stations

Nearby Weather Stations

Station Location Temp. Windchill Dew Point Humidity Wind Precip. Elev Updated Type
                   

Watches & Warnings

There are currently no watches in effect.